Time;durP1;ratioP1;P1;durP2;ratioP2;P2;SDS_P1;SDS_P2;PMS_P1;PMS_P2;Temp;Humidity;BMP_temperature;BMP_pressure;BME280_temperature;BME280_humidity;BME280_pressure;Samples;Min_cycle;Max_cycle;Signal;HPM_P1;HPM_P2
2022/09/24 00:00:33;;;;;;;4.25;3.65;;;11.80;99.90;;;;;;6290886;22;20206;-88
2022/09/24 00:02:59;;;;;;;5.00;4.28;;;;;;;;;;6282689;22;20152;-88
2022/09/24 00:05:25;;;;;;;6.03;3.60;;;;;;;;;;6277578;22;20197;-88
2022/09/24 00:07:51;;;;;;;5.40;4.27;;;;;;;;;;6270022;22;20417;-88
2022/09/24 00:10:17;;;;;;;6.70;4.17;;;;;;;;;;6274274;22;20446;-88
2022/09/24 00:12:42;;;;;;;5.13;4.60;;;;;;;;;;6272141;22;20359;-88
2022/09/24 00:15:09;;;;;;;8.23;4.70;;;;;;;;;;6273565;22;20386;-87
2022/09/24 00:17:34;;;;;;;6.32;4.50;;;;;;;;;;6272494;22;20876;-88
2022/09/24 00:20:01;;;;;;;7.20;5.50;;;;;;;;;;6273410;22;20195;-88
2022/09/24 00:22:26;;;;;;;8.57;5.10;;;;;;;;;;6273417;22;20369;-88
2022/09/24 00:27:38;;;;;;;8.07;5.93;;;12.00;99.90;;;;;;6206182;23;20476;-83
2022/09/24 00:30:04;;;;;;;11.43;7.27;;;11.80;99.90;;;;;;6261737;22;20191;-85
2022/09/24 00:32:30;;;;;;;9.23;7.60;;;11.80;99.90;;;;;;6270882;22;20167;-83
2022/09/24 00:34:55;;;;;;;9.60;7.50;;;;;;;;;;6267263;22;20701;-85
2022/09/24 00:37:21;;;;;;;13.60;9.43;;;;;;;;;;6262323;22;20152;-83
2022/09/24 00:39:47;;;;;;;15.53;8.93;;;;;;;;;;6266567;22;20425;-84
2022/09/24 00:42:19;;;;;;;11.27;9.60;;;11.70;99.90;;;;;;6273787;22;20466;-85
2022/09/24 00:44:52;;;;;;;11.40;8.68;;;11.70;99.90;;;;;;6277308;22;20470;-88
2022/09/24 00:47:35;;;;;;;13.77;10.50;;;11.70;99.90;;;;;;6281286;22;20147;-90
2022/09/24 00:50:28;;;;;;;;;;;;;;;;;;;;;
2022/09/24 00:52:57;;;;;;;13.30;8.82;;;;;;;;;;6282782;22;20151;-88
2022/09/24 00:55:23;;;;;;;14.48;9.80;;;;;;;;;;6280415;22;20655;-87
2022/09/24 00:57:55;;;;;;;12.45;8.82;;;11.70;99.90;;;;;;6279726;22;20155;-89
2022/09/24 01:00:25;;;;;;;10.05;7.63;;;11.80;99.90;;;;;;6276379;22;20263;-87
2022/09/24 01:02:57;;;;;;;13.18;9.82;;;11.80;99.90;;;;;;6275121;22;20363;-87
2022/09/24 01:05:23;;;;;;;11.90;7.95;;;;;;;;;;6276601;22;20149;-85
2022/09/24 01:07:49;;;;;;;12.60;9.03;;;;;;;;;;6277006;22;20619;-87
2022/09/24 01:10:46;;;;;;;12.87;9.47;;;11.90;99.90;;;;;;6278362;22;20374;-88
2022/09/24 01:13:25;;;;;;;15.00;11.48;;;11.80;99.90;;;;;;6279729;22;20381;-86
2022/09/24 01:16:01;;;;;;;13.32;11.60;;;11.70;99.90;;;;;;6276993;22;20922;-87
2022/09/24 01:19:04;;;;;;;13.60;10.38;;;11.70;99.90;;;;;;6277187;22;20143;-88
2022/09/24 01:21:44;;;;;;;9.98;8.10;;;11.70;99.90;;;;;;6277826;22;20175;-87
2022/09/24 01:24:10;;;;;;;12.18;8.38;;;;;;;;;;6279429;22;20163;-89
2022/09/24 01:27:05;;;;;;;18.08;7.95;;;11.70;99.90;;;;;;6278685;22;20155;-88
2022/09/24 01:29:50;;;;;;;11.15;8.43;;;11.60;99.90;;;;;;6277561;22;20156;-87
2022/09/24 01:32:32;;;;;;;19.70;12.93;;;11.50;99.90;;;;;;6278889;22;20177;-85
2022/09/24 01:35:02;;;;;;;21.00;13.10;;;11.30;99.90;;;;;;6277832;22;20172;-89
2022/09/24 01:37:32;;;;;;;16.98;12.50;;;11.20;99.90;;;;;;6278696;22;20147;-88
2022/09/24 01:39:59;;;;;;;16.77;12.00;;;11.10;99.90;;;;;;6278530;22;20171;-86
2022/09/24 01:42:29;;;;;;;15.07;11.25;;;11.00;99.90;;;;;;6274293;22;20204;-87
2022/09/24 01:44:56;;;;;;;19.65;13.05;;;8.50;99.90;;;;;;6273427;22;20751;-87
2022/09/24 01:47:31;;;;;;;16.95;12.25;;;11.70;99.90;;;;;;6279129;22;20128;-85
2022/09/24 01:49:56;;;;;;;12.57;10.55;;;10.90;99.90;;;;;;6272877;22;20167;-85
2022/09/24 01:52:30;;;;;;;14.90;11.07;;;11.00;99.90;;;;;;6275122;22;20217;-87
2022/09/24 01:54:58;;;;;;;16.00;10.18;;;11.00;99.90;;;;;;6276099;22;20202;-87
2022/09/24 01:57:28;;;;;;;9.88;8.73;;;10.90;99.90;;;;;;6277762;22;20152;-86
2022/09/24 02:00:08;;;;;;;15.02;9.27;;;10.90;99.90;;;;;;6279894;22;20159;-87
2022/09/24 02:02:59;;;;;;;15.38;10.50;;;10.90;99.90;;;;;;6274545;22;20124;-86
2022/09/24 02:05:46;;;;;;;22.48;12.18;;;10.80;99.90;;;;;;6274252;22;20152;-86
2022/09/24 02:08:22;;;;;;;12.90;10.15;;;10.80;99.90;;;;;;6276985;22;20132;-85
2022/09/24 02:11:01;;;;;;;12.85;11.25;;;10.80;99.90;;;;;;6278251;22;20164;-86
2022/09/24 02:13:35;;;;;;;14.95;12.32;;;10.90;99.90;;;;;;6274254;22;20144;-86
2022/09/24 02:16:04;;;;;;;17.50;11.50;;;10.80;99.90;;;;;;6276271;22;20203;-87
2022/09/24 02:18:34;;;;;;;16.08;10.73;;;10.80;99.90;;;;;;6272146;22;20148;-86
2022/09/24 02:21:08;;;;;;;16.48;11.27;;;10.80;99.90;;;;;;6274066;22;20233;-86
2022/09/24 02:23:37;;;;;;;15.02;9.60;;;10.80;99.90;;;;;;6274361;22;20550;-85
2022/09/24 02:26:04;;;;;;;21.02;12.10;;;10.90;99.90;;;;;;6275667;22;20128;-88
2022/09/24 02:28:31;;;;;;;15.85;11.55;;;10.80;99.90;;;;;;6273809;22;20144;-86
2022/09/24 02:31:13;;;;;;;12.70;9.35;;;10.80;99.90;;;;;;6274743;22;20178;-86
2022/09/24 02:36:28;;;;;;;16.33;12.45;;;10.80;99.90;;;;;;6274095;22;20135;-86
2022/09/24 02:38:54;;;;;;;17.65;13.00;;;10.80;99.90;;;;;;6263907;22;20179;-84
2022/09/24 02:41:22;;;;;;;16.87;13.33;;;10.90;99.90;;;;;;6274197;22;20259;-84
2022/09/24 02:43:48;;;;;;;23.65;14.80;;;10.90;99.90;;;;;;6270762;22;20181;-85
2022/09/24 02:46:16;;;;;;;16.67;11.52;;;10.90;99.90;;;;;;6272631;22;20143;-85
2022/09/24 02:48:42;;;;;;;19.88;12.35;;;;;;;;;;6274558;22;20660;-84
2022/09/24 02:51:09;;;;;;;15.10;11.33;;;;;;;;;;6275488;22;20171;-87
2022/09/24 02:53:34;;;;;;;15.40;10.93;;;;;;;;;;6272480;22;20377;-85
2022/09/24 02:56:00;;;;;;;19.00;10.60;;;10.70;99.90;;;;;;6273368;22;20196;-86
2022/09/24 02:58:27;;;;;;;12.30;9.90;;;10.60;99.90;;;;;;6273312;22;20378;-85
2022/09/24 03:00:53;;;;;;;16.90;11.40;;;;;;;;;;6272500;22;20456;-85
2022/09/24 03:03:20;;;;;;;11.32;8.18;;;;;;;;;;6273313;22;20187;-84
2022/09/24 03:05:45;;;;;;;13.90;10.02;;;10.70;99.90;;;;;;6275904;22;20199;-87
2022/09/24 03:08:12;;;;;;;12.90;8.23;;;;;;;;;;6274094;22;20846;-87
2022/09/24 03:10:38;;;;;;;11.48;8.63;;;;;;;;;;6271529;22;20522;-87
2022/09/24 03:13:03;;;;;;;12.00;8.02;;;10.90;99.90;;;;;;6273742;22;20152;-86
2022/09/24 03:15:29;;;;;;;12.27;8.40;;;;;;;;;;6273002;22;20209;-85
2022/09/24 03:17:56;;;;;;;7.97;7.03;;;;;;;;;;6271339;22;20156;-87
2022/09/24 03:20:23;;;;;;;8.85;7.10;;;11.20;99.90;;;;;;6272922;22;20433;-87
2022/09/24 03:22:51;;;;;;;11.38;9.75;;;11.00;99.90;;;;;;6273546;22;20269;-88
2022/09/24 03:25:18;;;;;;;17.42;12.93;;;11.10;99.90;;;;;;6273742;22;20163;-87
2022/09/24 03:27:43;;;;;;;17.10;13.18;;;11.10;99.90;;;;;;6273998;22;20166;-85
2022/09/24 03:32:54;;;;;;;10.32;8.23;;;11.10;99.90;;;;;;6279899;22;20182;-89
2022/09/24 03:35:20;;;;;;;14.63;11.20;;;11.10;99.90;;;;;;6279868;22;20598;-88
2022/09/24 03:37:46;;;;;;;11.87;8.80;;;;;;;;;;6279420;22;20187;-88
2022/09/24 03:40:12;;;;;;;14.70;8.67;;;;;;;;;;6277137;22;20430;-89
2022/09/24 03:42:38;;;;;;;11.32;8.65;;;;;;;;;;6289255;22;20837;-89
2022/09/24 03:45:05;;;;;;;13.87;9.70;;;11.10;99.90;;;;;;6286527;22;20152;-89
2022/09/24 03:47:31;;;;;;;11.38;10.23;;;11.20;99.90;;;;;;6286746;22;20414;-89
2022/09/24 03:49:56;;;;;;;15.03;10.87;;;11.10;99.90;;;;;;6285977;22;20226;-89
2022/09/24 03:52:23;;;;;;;14.17;11.53;;;;;;;;;;6273655;22;20399;-89
2022/09/24 03:54:49;;;;;;;18.00;12.23;;;;;;;;;;6274903;22;20374;-88
2022/09/24 03:57:14;;;;;;;22.77;12.20;;;;;;;;;;6272950;22;20151;-87
2022/09/24 03:59:41;;;;;;;18.13;12.70;;;11.10;99.90;;;;;;6272308;22;20465;-89
2022/09/24 04:02:08;;;;;;;29.40;11.77;;;;;;;;;;6269151;22;20385;-89
2022/09/24 04:04:34;;;;;;;15.88;10.93;;;;;;;;;;6275643;22;20717;-89
2022/09/24 04:07:00;;;;;;;19.43;13.67;;;11.10;99.90;;;;;;6273179;22;20156;-89
2022/09/24 04:09:26;;;;;;;19.63;13.30;;;11.00;99.90;;;;;;6275887;22;20363;-91
2022/09/24 04:11:52;;;;;;;21.73;14.70;;;;;;;;;;6275454;22;20171;-89
2022/09/24 04:14:19;;;;;;;22.48;14.45;;;;;;;;;;6277564;22;20196;-89
2022/09/24 04:16:44;;;;;;;22.15;14.68;;;10.80;99.90;;;;;;6278529;22;20163;-90
2022/09/24 04:19:17;;;;;;;25.57;15.20;;;10.80;99.90;;;;;;6272839;22;20555;-90
2022/09/24 04:21:45;;;;;;;16.65;11.32;;;10.70;99.90;;;;;;6276303;22;20188;-89
2022/09/24 04:24:11;;;;;;;12.20;9.90;;;;;;;;;;6276109;22;20168;-90
2022/09/24 04:26:37;;;;;;;11.15;8.02;;;10.80;99.90;;;;;;6278729;22;20167;-89
2022/09/24 04:29:04;;;;;;;10.90;7.87;;;10.70;99.90;;;;;;6279918;22;20234;-89
2022/09/24 04:31:32;;;;;;;13.70;8.85;;;;;;;;;;6280737;22;20155;-89
2022/09/24 04:33:58;;;;;;;13.35;9.52;;;10.60;99.90;;;;;;6276532;22;20171;-91
2022/09/24 04:36:25;;;;;;;11.18;8.95;;;;;;;;;;6278079;22;20262;-89
2022/09/24 04:38:51;;;;;;;14.68;10.52;;;10.60;99.90;;;;;;6276331;22;20860;-88
2022/09/24 04:41:17;;;;;;;9.90;8.90;;;;;;;;;;6274535;22;20605;-90
2022/09/24 04:43:45;;;;;;;14.23;8.83;;;;;;;;;;6270723;22;20201;-89
2022/09/24 04:46:11;;;;;;;16.42;10.25;;;;;;;;;;6270212;22;20458;-89
2022/09/24 04:48:37;;;;;;;19.25;11.63;;;;;;;;;;6274791;22;20148;-89
2022/09/24 04:51:07;;;;;;;15.07;11.90;;;10.40;99.90;;;;;;6275392;22;20269;-89
2022/09/24 04:53:34;;;;;;;17.05;11.90;;;10.30;99.90;;;;;;6275707;22;20140;-89
2022/09/24 04:56:01;;;;;;;17.63;10.98;;;12.30;99.90;;;;;;6275802;22;20207;-89
2022/09/24 04:58:27;;;;;;;15.73;11.52;;;;;;;;;;6277292;22;20151;-89
2022/09/24 05:00:53;;;;;;;20.80;14.20;;;;;;;;;;6272510;22;20230;-90
2022/09/24 05:03:22;;;;;;;19.95;13.55;;;;;;;;;;6273939;22;20544;-90
2022/09/24 05:05:50;;;;;;;20.10;12.68;;;10.30;99.90;;;;;;6272724;22;20213;-91
2022/09/24 05:08:16;;;;;;;20.42;12.60;;;;;;;;;;6269168;22;20222;-89
2022/09/24 05:10:47;;;;;;;16.17;11.13;;;10.30;99.90;;;;;;6270193;22;20599;-88
2022/09/24 05:13:13;;;;;;;15.57;11.65;;;10.20;99.90;;;;;;6264301;22;20379;-89
2022/09/24 05:15:39;;;;;;;14.02;10.45;;;;;;;;;;6266992;22;20186;-90
2022/09/24 05:18:05;;;;;;;14.37;10.87;;;;;;;;;;6264687;22;20557;-88
2022/09/24 05:20:32;;;;;;;15.10;12.00;;;10.40;99.90;;;;;;6264533;22;20418;-89
2022/09/24 05:22:58;;;;;;;17.02;13.00;;;;;;;;;;6267099;22;20377;-90
2022/09/24 05:25:24;;;;;;;20.00;12.30;;;10.50;99.90;;;;;;6267154;22;20538;-89
2022/09/24 05:27:52;;;;;;;15.10;12.27;;;11.70;99.90;;;;;;6268304;22;20370;-88
2022/09/24 05:30:19;;;;;;;18.27;12.10;;;10.60;99.90;;;;;;6266521;22;20152;-90
2022/09/24 05:32:48;;;;;;;18.30;11.63;;;;;;;;;;6265940;22;20552;-89
2022/09/24 05:35:14;;;;;;;16.67;10.85;;;10.60;99.90;;;;;;6266025;22;20195;-88
2022/09/24 05:37:44;;;;;;;20.53;13.50;;;10.60;99.90;;;;;;6257159;22;20152;-92
2022/09/24 05:43:01;;;;;;;17.63;13.10;;;10.70;99.90;;;;;;6263206;22;20148;-90
2022/09/24 05:45:28;;;;;;;21.80;14.35;;;10.50;99.90;;;;;;6260497;22;20172;-89
2022/09/24 05:47:56;;;;;;;24.98;15.35;;;10.50;99.90;;;;;;6261217;22;20175;-88
2022/09/24 05:50:22;;;;;;;23.30;15.20;;;;;;;;;;6264922;22;20148;-89
2022/09/24 05:52:49;;;;;;;27.88;16.40;;;10.50;99.90;;;;;;6265953;22;20178;-90
2022/09/24 05:55:15;;;;;;;23.42;16.23;;;;;;;;;;6266588;22;20176;-89
2022/09/24 05:57:41;;;;;;;25.13;19.50;;;10.80;99.90;;;;;;6263361;22;20267;-88
2022/09/24 06:00:07;;;;;;;22.95;19.05;;;10.80;99.90;;;;;;6265085;22;20418;-92
2022/09/24 06:02:34;;;;;;;26.23;19.23;;;10.90;99.90;;;;;;6261462;22;20155;-89
2022/09/24 06:05:00;;;;;;;25.15;18.38;;;;;;;;;;6263986;22;20168;-89
2022/09/24 06:07:26;;;;;;;24.13;18.47;;;11.30;99.90;;;;;;6264968;22;20159;-89
2022/09/24 06:09:53;;;;;;;27.25;18.88;;;;;;;;;;6266241;22;20374;-89
2022/09/24 06:12:21;;;;;;;25.27;17.55;;;11.30;99.90;;;;;;6266736;22;20180;-89
2022/09/24 06:14:46;;;;;;;20.05;16.30;;;;;;;;;;6268721;22;20171;-88
2022/09/24 06:17:12;;;;;;;23.70;17.27;;;;;;;;;;6270680;22;20160;-89
2022/09/24 06:19:39;;;;;;;24.07;18.03;;;;;;;;;;6268666;22;20458;-89
2022/09/24 06:22:07;;;;;;;21.92;17.67;;;11.20;99.90;;;;;;6271748;22;20382;-88
2022/09/24 06:24:33;;;;;;;23.13;17.05;;;11.50;99.90;;;;;;6269139;22;20195;-90
2022/09/24 06:26:59;;;;;;;21.75;17.33;;;;;;;;;;6270397;22;20203;-86
2022/09/24 06:29:26;;;;;;;23.07;16.60;;;;;;;;;;6275221;22;20148;-86
2022/09/24 06:31:52;;;;;;;25.52;18.40;;;12.00;99.90;;;;;;6275431;22;20396;-86
2022/09/24 06:34:18;;;;;;;27.53;17.40;;;;;;;;;;6271839;22;20211;-86
2022/09/24 06:36:44;;;;;;;22.10;15.17;;;;;;;;;;6273051;22;20390;-85
2022/09/24 06:39:09;;;;;;;29.37;20.27;;;12.40;99.90;;;;;;6268072;22;20449;-86
2022/09/24 06:41:35;;;;;;;34.80;20.23;;;;;;;;;;6268141;22;20371;-86
2022/09/24 06:44:01;;;;;;;23.87;18.10;;;12.80;99.90;;;;;;6264321;22;20148;-86
2022/09/24 06:46:27;;;;;;;27.53;17.13;;;13.00;99.90;;;;;;6261229;22;20481;-86
2022/09/24 06:48:53;;;;;;;22.37;16.40;;;;;;;;;;6261641;22;20156;-85
2022/09/24 06:51:20;;;;;;;23.50;15.50;;;;;;;;;;6266883;22;20221;-85
2022/09/24 06:53:46;;;;;;;18.13;14.38;;;;;;;;;;6262442;22;20164;-86
2022/09/24 06:56:11;;;;;;;22.20;15.53;;;;;;;;;;6287471;22;20168;-86
2022/09/24 06:58:37;;;;;;;22.47;16.20;;;;;;;;;;6281561;22;20409;-86
2022/09/24 07:01:04;;;;;;;18.17;14.80;;;;;;;;;;6271536;22;20371;-86
2022/09/24 07:03:31;;;;;;;21.02;16.17;;;14.30;99.90;;;;;;6267677;22;20152;-86
2022/09/24 07:06:00;;;;;;;19.02;14.90;;;14.30;99.90;;;;;;6268891;22;20175;-85
2022/09/24 07:08:26;;;;;;;20.10;15.15;;;;;;;;;;6263596;22;20167;-85
2022/09/24 07:10:52;;;;;;;15.73;13.00;;;14.50;99.90;;;;;;6267270;22;20147;-85
2022/09/24 07:13:20;;;;;;;26.67;14.60;;;;;;;;;;6266970;22;20359;-86
2022/09/24 07:15:48;;;;;;;18.97;13.70;;;14.90;99.90;;;;;;6263911;22;20143;-85
2022/09/24 07:18:14;;;;;;;21.60;13.70;;;;;;;;;;6265326;22;20386;-85
2022/09/24 07:20:40;;;;;;;19.80;14.73;;;;;;;;;;6266699;22;20471;-87
2022/09/24 07:23:08;;;;;;;20.70;14.67;;;15.10;99.90;;;;;;6270104;22;20351;-86
2022/09/24 07:25:34;;;;;;;19.60;14.43;;;;;;;;;;6279556;22;20592;-85
2022/09/24 07:28:02;;;;;;;20.13;14.10;;;15.10;99.90;;;;;;6267273;22;20825;-86
2022/09/24 07:30:28;;;;;;;18.20;15.20;;;;;;;;;;6268738;22;20860;-85
2022/09/24 07:32:54;;;;;;;23.33;13.70;;;15.50;99.90;;;;;;6257495;22;20355;-85
2022/09/24 07:35:20;;;;;;;18.57;14.63;;;;;;;;;;6257597;22;20374;-86
2022/09/24 07:37:46;;;;;;;18.77;14.00;;;;;;;;;;6260473;22;21108;-85
2022/09/24 07:40:12;;;;;;;16.90;14.53;;;;;;;;;;6261138;22;20421;-85
2022/09/24 07:42:48;;;;;;;17.50;13.27;;;16.30;99.90;;;;;;6265093;22;20363;-86
2022/09/24 07:45:16;;;;;;;23.67;14.60;;;;;;;;;;6265519;22;20374;-86
2022/09/24 07:47:42;;;;;;;14.50;12.27;;;;;;;;;;6265547;22;20456;-86
2022/09/24 07:50:08;;;;;;;17.10;13.63;;;16.70;99.90;;;;;;6267519;22;20362;-86
2022/09/24 07:52:34;;;;;;;18.03;12.90;;;;;;;;;;6265876;22;20433;-86
2022/09/24 07:55:00;;;;;;;15.30;13.33;;;16.70;99.90;;;;;;6265710;22;20454;-85
2022/09/24 07:57:26;;;;;;;18.27;14.20;;;;;;;;;;6262964;22;20500;-85
2022/09/24 07:59:52;;;;;;;21.33;15.07;;;16.70;99.90;;;;;;6263329;22;20164;-84
2022/09/24 08:02:19;;;;;;;17.73;13.93;;;;;;;;;;6263377;22;20355;-86
2022/09/24 08:04:45;;;;;;;14.00;12.50;;;16.70;99.90;;;;;;6260356;22;20417;-84
2022/09/24 08:07:12;;;;;;;25.37;14.67;;;16.40;99.90;;;;;;6262861;22;20386;-85
2022/09/24 08:09:38;;;;;;;16.80;12.43;;;15.90;99.90;;;;;;6266254;22;20867;-85
2022/09/24 08:12:06;;;;;;;17.20;13.60;;;15.80;99.90;;;;;;6266705;22;20428;-84
2022/09/24 08:14:32;;;;;;;24.37;14.07;;;15.60;99.90;;;;;;6269267;22;20394;-86
2022/09/24 08:16:58;;;;;;;18.13;13.50;;;15.80;99.90;;;;;;6268326;22;20398;-86
2022/09/24 08:19:24;;;;;;;19.87;13.13;;;15.70;99.90;;;;;;6287238;22;20421;-86
2022/09/24 08:21:51;;;;;;;18.67;13.83;;;;;;;;;;6284504;22;20148;-86
2022/09/24 08:24:16;;;;;;;20.07;14.60;;;;;;;;;;6280216;22;20347;-84
2022/09/24 08:26:42;;;;;;;25.67;15.37;;;;;;;;;;6289065;22;20479;-86
2022/09/24 08:29:09;;;;;;;16.73;14.10;;;;;;;;;;6270328;22;20446;-85
2022/09/24 08:31:36;;;;;;;22.00;14.53;;;;;;;;;;6273304;22;20371;-85
2022/09/24 08:34:01;;;;;;;17.70;14.03;;;;;;;;;;6270358;22;20405;-85
2022/09/24 08:36:27;;;;;;;16.13;13.50;;;15.40;99.90;;;;;;6268625;22;20382;-84
2022/09/24 08:38:54;;;;;;;22.63;15.30;;;15.70;99.90;;;;;;6272016;22;20489;-85
2022/09/24 08:41:42;;;;;;;21.67;14.07;;;15.90;99.90;;;;;;6267427;22;20154;-84
2022/09/24 08:47:21;;;;;;;17.40;12.00;;;16.10;99.90;;;;;;6266266;22;20363;-86
2022/09/24 08:49:51;;;;;;;15.83;13.07;;;16.00;99.90;;;;;;6275050;22;20362;-85
2022/09/24 08:52:34;;;;;;;22.17;15.30;;;13.80;99.90;;;;;;6270980;22;20720;-86
2022/09/24 08:55:04;;;;;;;18.33;15.13;;;15.70;99.90;;;;;;6270833;22;20373;-86
2022/09/24 08:57:46;;;;;;;24.43;14.70;;;15.50;99.90;;;;;;6264311;22;20410;-87
2022/09/24 09:00:14;;;;;;;20.63;15.33;;;15.90;99.90;;;;;;6274375;22;20417;-85
2022/09/24 09:03:08;;;;;;;20.83;14.63;;;16.10;99.90;;;;;;6273177;22;20494;-86
2022/09/24 09:05:50;;;;;;;22.97;15.70;;;15.80;99.90;;;;;;6297654;22;20371;-86
2022/09/24 09:08:28;;;;;;;17.50;14.57;;;16.40;99.90;;;;;;6280700;22;20351;-86
2022/09/24 09:10:59;;;;;;;19.53;14.43;;;16.70;99.90;;;;;;6283339;22;20378;-87
2022/09/24 09:13:41;;;;;;;17.27;13.47;;;17.00;99.90;;;;;;6277130;22;20381;-87
2022/09/24 09:16:39;;;;;;;17.00;12.87;;;17.30;99.90;;;;;;6277895;22;20390;-87
2022/09/24 09:19:10;;;;;;;28.33;14.87;;;17.60;99.90;;;;;;6253553;22;20581;-88
2022/09/24 09:21:36;;;;;;;24.50;15.80;;;;;;;;;;6276186;22;20351;-87
2022/09/24 09:24:02;;;;;;;45.77;15.67;;;;;;;;;;6267596;22;20371;-86
2022/09/24 09:26:28;;;;;;;18.50;13.23;;;;;;;;;;6274218;22;20450;-86
2022/09/24 09:28:59;;;;;;;24.20;14.40;;;18.20;99.90;;;;;;6269913;22;20374;-86
2022/09/24 09:32:02;;;;;;;23.17;15.20;;;18.30;99.90;;;;;;6274657;22;20854;-86
2022/09/24 09:34:52;;;;;;;20.70;14.23;;;18.50;99.90;;;;;;6276283;22;20990;-87
2022/09/24 09:37:28;;;;;;;21.70;13.53;;;18.30;99.90;;;;;;6276658;22;20379;-87
2022/09/24 09:40:17;;;;;;;14.83;11.73;;;18.30;99.90;;;;;;6275462;22;20406;-86
2022/09/24 09:42:44;;;;;;;20.27;15.03;;;18.10;99.90;;;;;;6297304;22;20362;-86
2022/09/24 09:45:38;;;;;;;18.80;16.27;;;18.10;99.90;;;;;;6285116;22;20379;-87
2022/09/24 09:48:04;;;;;;;19.03;12.70;;;;;;;;;;6277462;22;20386;-86
2022/09/24 09:50:52;;;;;;;18.67;13.97;;;17.20;99.90;;;;;;6276545;22;20370;-87
2022/09/24 09:53:21;;;;;;;18.40;13.13;;;17.20;99.90;;;;;;6269815;22;20331;-83
2022/09/24 09:56:02;;;;;;;17.17;12.13;;;17.00;99.90;;;;;;6280008;22;20414;-86
2022/09/24 09:58:31;;;;;;;20.80;14.30;;;16.90;99.90;;;;;;6272660;22;20670;-85
2022/09/24 10:01:12;;;;;;;14.70;11.73;;;17.30;99.90;;;;;;6257550;22;20396;-86
2022/09/24 10:03:43;;;;;;;16.67;11.17;;;17.50;99.90;;;;;;6272405;22;20362;-86
2022/09/24 10:06:31;;;;;;;16.00;10.70;;;17.90;99.90;;;;;;6267737;22;20456;-85
2022/09/24 10:09:18;;;;;;;14.03;9.90;;;18.30;99.90;;;;;;6266459;22;20531;-85
2022/09/24 10:11:44;;;;;;;14.53;10.93;;;19.00;99.90;;;;;;6246285;22;21102;-86
2022/09/24 10:14:12;;;;;;;17.57;9.80;;;18.60;99.90;;;;;;6269934;22;20847;-86
2022/09/24 10:16:40;;;;;;;15.50;10.20;;;18.70;99.90;;;;;;6275053;22;20395;-85
2022/09/24 10:19:20;;;;;;;15.37;10.80;;;19.00;99.90;;;;;;6271362;22;20477;-84
2022/09/24 10:21:46;;;;;;;16.80;11.10;;;;;;;;;;6268827;22;20367;-85
2022/09/24 10:24:28;;;;;;;19.17;11.27;;;18.80;99.90;;;;;;6274311;22;20350;-86
2022/09/24 10:26:54;;;;;;;15.13;10.20;;;;;;;;;;6272472;22;20434;-85
2022/09/24 10:32:21;;;;;;;11.57;9.57;;;19.40;99.90;;;;;;6274169;22;20386;-85
2022/09/24 10:34:58;;;;;;;10.20;9.00;;;19.60;99.90;;;;;;6277017;22;20386;-86
2022/09/24 10:37:24;;;;;;;16.60;9.60;;;;;;;;;;6276528;22;20409;-85
2022/09/24 10:40:14;;;;;;;11.43;9.87;;;20.50;99.90;;;;;;6278284;22;20402;-86
2022/09/24 10:42:40;;;;;;;23.27;9.43;;;;;;;;;;6276658;22;20363;-85
2022/09/24 10:45:15;;;;;;;9.87;8.87;;;21.30;99.90;;;;;;6285534;22;20361;-86
2022/09/24 10:47:42;;;;;;;11.33;9.43;;;;;;;;;;6272853;22;20389;-85
2022/09/24 10:50:16;;;;;;;10.50;8.40;;;21.50;99.90;;;;;;6276396;22;20494;-85
2022/09/24 10:53:06;;;;;;;11.53;9.50;;;21.40;99.90;;;;;;6271208;22;20389;-86
2022/09/24 10:55:54;;;;;;;11.90;9.83;;;21.20;99.90;;;;;;6275299;22;20374;-86
2022/09/24 10:58:23;;;;;;;12.80;9.17;;;;;;;;;;6274336;22;20390;-85
2022/09/24 11:01:03;;;;;;;14.20;8.93;;;21.10;99.90;;;;;;6270603;22;21386;-87
2022/09/24 11:03:44;;;;;;;13.10;9.67;;;21.10;99.90;;;;;;6272597;22;20347;-88
2022/09/24 11:06:21;;;;;;;16.37;8.50;;;21.00;99.90;;;;;;6288238;22;20406;-88
2022/09/24 11:09:12;;;;;;;12.83;8.80;;;20.90;99.90;;;;;;6276534;22;20405;-88
2022/09/24 11:11:49;;;;;;;16.23;10.73;;;20.60;99.90;;;;;;6270676;22;20362;-87
2022/09/24 11:14:29;;;;;;;10.03;9.00;;;20.30;99.90;;;;;;6271361;22;20378;-86
2022/09/24 11:16:56;;;;;;;10.60;9.53;;;;;;;;;;6274186;22;20500;-84
2022/09/24 11:20:01;;;;;;;14.33;9.30;;;20.30;99.90;;;;;;6279096;22;20437;-83
2022/09/24 11:23:13;;;;;;;10.07;8.97;;;20.30;99.90;;;;;;6279142;22;20418;-84
2022/09/24 11:25:53;;;;;;;16.27;8.87;;;19.70;99.90;;;;;;6162996;23;20385;-85
2022/09/24 11:28:24;;;;;;;16.50;11.03;;;19.40;99.90;;;;;;6265837;22;20408;-85
2022/09/24 11:30:50;;;;;;;14.00;10.00;;;;;;;;;;6276015;22;20375;-84
2022/09/24 11:33:48;;;;;;;18.27;10.53;;;18.90;99.90;;;;;;6276135;22;20361;-85
2022/09/24 11:36:19;;;;;;;14.00;9.47;;;18.50;99.90;;;;;;6216612;22;20402;-85
2022/09/24 11:39:08;;;;;;;12.80;10.20;;;18.50;99.90;;;;;;6269100;22;20354;-85
2022/09/24 11:42:15;;;;;;;14.57;11.10;;;18.30;99.90;;;;;;6270607;22;20434;-86
2022/09/24 11:45:03;;;;;;;15.23;10.90;;;17.80;99.90;;;;;;6277376;22;20361;-85
2022/09/24 11:47:32;;;;;;;19.83;13.00;;;17.70;99.90;;;;;;6292970;22;20402;-85
2022/09/24 11:49:58;;;;;;;14.30;11.03;;;;;;;;;;6288276;22;20375;-85
2022/09/24 11:52:37;;;;;;;16.67;12.90;;;17.50;99.90;;;;;;6273719;22;21140;-86
2022/09/24 11:55:15;;;;;;;16.90;11.87;;;17.00;99.90;;;;;;6274471;22;20864;-86
2022/09/24 11:57:52;;;;;;;22.93;14.10;;;16.90;99.90;;;;;;6271683;22;20413;-85
2022/09/24 12:00:19;;;;;;;22.13;14.63;;;16.70;99.90;;;;;;6269042;22;20412;-85
2022/09/24 12:03:04;;;;;;;14.63;13.13;;;16.60;99.90;;;;;;6271032;22;20359;-85
2022/09/24 12:05:40;;;;;;;17.53;12.57;;;16.20;99.90;;;;;;6278288;22;20455;-84
2022/09/24 12:08:16;;;;;;;27.50;18.73;;;16.10;99.90;;;;;;6272073;22;20690;-85
2022/09/24 12:11:00;;;;;;;17.43;12.87;;;16.00;99.90;;;;;;6274371;22;20369;-86
2022/09/24 12:13:47;;;;;;;20.97;15.20;;;15.70;99.90;;;;;;6266517;22;20729;-86
2022/09/24 12:16:18;;;;;;;21.97;16.60;;;15.50;99.90;;;;;;6272884;22;20394;-84
2022/09/24 12:19:07;;;;;;;18.80;14.87;;;15.40;99.90;;;;;;6272391;22;20378;-84
2022/09/24 12:21:39;;;;;;;29.80;21.07;;;15.30;99.90;;;;;;6272736;22;20358;-84
2022/09/24 12:24:46;;;;;;;23.43;14.33;;;15.30;99.90;;;;;;6272644;22;20350;-85
2022/09/24 12:27:18;;;;;;;13.90;10.77;;;15.30;99.90;;;;;;6272881;22;20436;-84
2022/09/24 12:32:53;;;;;;;19.50;12.13;;;15.10;99.90;;;;;;6274188;22;20362;-86
2022/09/24 12:35:31;;;;;;;27.03;14.37;;;15.00;99.90;;;;;;6274870;22;20363;-85
2022/09/24 12:38:03;;;;;;;18.10;12.57;;;15.00;99.90;;;;;;6269815;22;20438;-84
2022/09/24 12:40:56;;;;;;;20.23;12.53;;;15.00;99.90;;;;;;6268907;22;20414;-83
2022/09/24 12:43:24;;;;;;;20.70;14.18;;;;;;;;;;6265928;22;20378;-83
2022/09/24 12:45:57;;;;;;;23.47;14.20;;;15.20;99.90;;;;;;6269199;22;20636;-86
2022/09/24 12:48:24;;;;;;;21.40;14.17;;;15.20;99.90;;;;;;6271059;22;20837;-83
2022/09/24 12:51:02;;;;;;;22.17;13.83;;;15.40;99.90;;;;;;6285821;22;20381;-84
2022/09/24 12:53:36;;;;;;;19.40;14.60;;;15.80;99.90;;;;;;6277434;22;20484;-85
2022/09/24 12:56:03;;;;;;;22.30;14.87;;;16.00;99.90;;;;;;6269669;22;20678;-85
2022/09/24 12:58:35;;;;;;;18.77;13.90;;;16.00;99.90;;;;;;6264179;22;20405;-85
2022/09/24 13:01:23;;;;;;;20.57;14.03;;;16.10;99.90;;;;;;6270055;22;20403;-85
2022/09/24 13:04:24;;;;;;;25.83;13.20;;;16.30;99.90;;;;;;6269975;22;20801;-85
2022/09/24 13:06:50;;;;;;;16.40;12.80;;;;;;;;;;6266008;22;20401;-86
2022/09/24 13:09:39;;;;;;;18.07;12.30;;;16.20;99.90;;;;;;6269075;22;20362;-86
2022/09/24 13:12:14;;;;;;;19.47;12.70;;;17.00;99.90;;;;;;6265115;22;20428;-85
2022/09/24 13:14:45;;;;;;;16.23;11.60;;;16.60;99.90;;;;;;6269595;22;21175;-85
2022/09/24 13:17:14;;;;;;;15.90;11.00;;;16.90;99.90;;;;;;6269415;22;20386;-85
2022/09/24 13:19:43;;;;;;;14.60;10.20;;;16.80;99.90;;;;;;6260035;22;20410;-85
2022/09/24 13:22:24;;;;;;;16.07;11.40;;;17.00;99.90;;;;;;6264359;22;20510;-87
2022/09/24 13:25:03;;;;;;;16.03;11.00;;;17.20;99.90;;;;;;6269079;22;20374;-87
2022/09/24 13:27:30;;;;;;;14.10;11.10;;;17.20;99.90;;;;;;6266611;22;20417;-84
2022/09/24 13:30:05;;;;;;;19.40;14.17;;;17.20;99.90;;;;;;6267001;22;20355;-85
2022/09/24 13:32:35;;;;;;;14.80;12.23;;;17.40;99.90;;;;;;6267118;22;20703;-85
2022/09/24 13:35:12;;;;;;;14.47;11.60;;;17.50;99.90;;;;;;6268670;22;20856;-85
2022/09/24 13:37:42;;;;;;;18.53;12.80;;;17.60;99.90;;;;;;6261393;22;20398;-84
2022/09/24 13:40:31;;;;;;;14.67;12.40;;;17.60;99.90;;;;;;6266702;22;20477;-85
2022/09/24 13:43:34;;;;;;;16.93;12.97;;;17.60;99.90;;;;;;6263458;22;20378;-84
2022/09/24 13:46:03;;;;;;;15.03;11.80;;;17.40;99.90;;;;;;6269101;22;20404;-85
2022/09/24 13:48:39;;;;;;;18.17;13.00;;;17.40;99.90;;;;;;6269224;22;20378;-83